Time;durP1;ratioP1;P1;durP2;ratioP2;P2;SDS_P1;SDS_P2;PMS_P1;PMS_P2;Temp;Humidity;BMP_temperature;BMP_pressure;BME280_temperature;BME280_humidity;BME280_pressure;Samples;Min_cycle;Max_cycle;Signal;HPM_P1;HPM_P2
2022/11/10 00:00:39;;;;;;;;;;;9.40;90.90;;;;;;4996656;28;19918;-47
2022/11/10 00:03:05;;;;;;;;;;;9.50;90.90;;;;;;4995251;28;20224;-47
2022/11/10 00:05:31;;;;;;;;;;;9.40;90.90;;;;;;4995654;28;19921;-47
2022/11/10 00:08:01;;;;;;;;;;;9.40;90.90;;;;;;5011907;28;19913;-48
2022/11/10 00:10:28;;;;;;;;;;;9.40;91.00;;;;;;5015997;28;20227;-47
2022/11/10 00:12:53;;;;;;;;;;;9.40;91.10;;;;;;5014958;28;19956;-48
2022/11/10 00:18:04;;;;;;;;;;;9.40;91.10;;;;;;4996435;28;19929;-47
2022/11/10 00:20:30;;;;;;;;;;;9.40;91.30;;;;;;4996519;28;19909;-50
2022/11/10 00:22:59;;;;;;;;;;;9.50;91.40;;;;;;4995805;28;19964;-49
2022/11/10 00:25:25;;;;;;;;;;;9.40;91.50;;;;;;4996411;28;19937;-47
2022/11/10 00:27:51;;;;;;;;;;;9.40;91.60;;;;;;4996777;28;20403;-48
2022/11/10 00:30:17;;;;;;;;;;;9.40;91.60;;;;;;4996290;28;19944;-47
2022/11/10 00:32:48;;;;;;;;;;;9.50;91.60;;;;;;4996273;28;19928;-47
2022/11/10 00:35:13;;;;;;;;;;;9.50;91.70;;;;;;4996029;28;20332;-48
2022/11/10 00:37:39;;;;;;;;;;;9.40;91.70;;;;;;5008716;28;19929;-47
2022/11/10 00:40:06;;;;;;;;;;;9.40;91.70;;;;;;5011564;28;19909;-47
2022/11/10 00:42:32;;;;;;;;;;;9.40;91.80;;;;;;5011512;28;19906;-48
2022/11/10 00:44:59;;;;;;;;;;;9.50;91.70;;;;;;4995556;28;19917;-47
2022/11/10 00:47:26;;;;;;;;;;;9.50;91.60;;;;;;4995809;28;19960;-49
2022/11/10 00:49:51;;;;;;;;;;;9.50;91.60;;;;;;5011233;28;19920;-48
2022/11/10 00:52:18;;;;;;;;;;;9.50;91.40;;;;;;5012344;28;19928;-47
2022/11/10 00:54:45;;;;;;;;;;;9.50;91.40;;;;;;5013493;28;19910;-47
2022/11/10 00:57:12;;;;;;;;;;;9.50;91.40;;;;;;5015465;28;19905;-47
2022/11/10 00:59:38;;;;;;;;;;;9.50;91.40;;;;;;5010218;28;19967;-49
2022/11/10 01:02:04;;;;;;;;;;;9.50;91.40;;;;;;4995648;28;20007;-47
2022/11/10 01:04:29;;;;;;;;;;;9.50;91.40;;;;;;4994473;28;19975;-48
2022/11/10 01:06:56;;;;;;;;;;;9.50;91.30;;;;;;5010369;28;19937;-47
2022/11/10 01:09:21;;;;;;;;;;;9.50;91.10;;;;;;4995418;28;19968;-47
2022/11/10 01:11:47;;;;;;;;;;;9.50;91.20;;;;;;4995371;28;19909;-47
2022/11/10 01:14:13;;;;;;;;;;;9.50;91.20;;;;;;4995484;28;20196;-47
2022/11/10 01:16:38;;;;;;;;;;;9.50;91.30;;;;;;4995120;28;19927;-47
2022/11/10 01:19:05;;;;;;;;;;;9.60;91.20;;;;;;4994197;28;19921;-47
2022/11/10 01:21:32;;;;;;;;;;;9.60;91.30;;;;;;5006277;28;19917;-47
2022/11/10 01:23:59;;;;;;;;;;;9.70;91.20;;;;;;5013416;28;19913;-48
2022/11/10 01:26:24;;;;;;;;;;;9.70;91.10;;;;;;5013866;28;20320;-47
2022/11/10 01:28:51;;;;;;;;;;;9.70;91.10;;;;;;5004919;28;19972;-47
2022/11/10 01:31:21;;;;;;;;;;;9.80;91.20;;;;;;4995375;28;19909;-47
2022/11/10 01:33:47;;;;;;;;;;;9.80;91.10;;;;;;4994333;28;19910;-47
2022/11/10 01:36:14;;;;;;;;;;;9.90;91.20;;;;;;5001005;28;20302;-47
2022/11/10 01:38:40;;;;;;;;;;;9.90;91.30;;;;;;5013916;28;19917;-49
2022/11/10 01:41:11;;;;;;;;;;;9.90;91.30;;;;;;5014745;28;19913;-48
2022/11/10 01:43:41;;;;;;;;;;;9.90;91.30;;;;;;5013554;28;20004;-47
2022/11/10 01:46:25;;;;;;;;;;;9.90;91.20;;;;;;5010696;28;19917;-47
2022/11/10 01:48:50;;;;;;;;;;;9.90;91.30;;;;;;5005064;28;20328;-47
2022/11/10 01:51:28;;;;;;;;;;;9.90;91.30;;;;;;5000260;28;19923;-47
2022/11/10 01:53:57;;;;;;;;;;;9.90;91.30;;;;;;5013462;28;19985;-48
2022/11/10 01:56:24;;;;;;;;;;;9.80;91.30;;;;;;5001530;28;19924;-47
2022/11/10 01:58:56;;;;;;;;;;;9.80;91.30;;;;;;4994916;28;20351;-47
2022/11/10 02:01:23;;;;;;;;;;;9.70;91.50;;;;;;5009853;28;19906;-47
2022/11/10 02:03:53;;;;;;;;;;;9.70;91.60;;;;;;4994301;28;19952;-47
2022/11/10 02:06:21;;;;;;;;;;;9.70;91.70;;;;;;5001771;28;19975;-47
2022/11/10 02:08:48;;;;;;;;;;;9.70;91.90;;;;;;5009543;28;19909;-47
2022/11/10 02:11:14;;;;;;;;;;;9.70;92.00;;;;;;5009949;28;19910;-48
2022/11/10 02:13:41;;;;;;;;;;;9.70;92.10;;;;;;4993472;28;19912;-47
2022/11/10 02:16:08;;;;;;;;;;;9.70;92.20;;;;;;4993472;28;20263;-47
2022/11/10 02:18:36;;;;;;;;;;;9.80;92.20;;;;;;4992824;28;19926;-48
2022/11/10 02:21:18;;;;;;;;;;;9.80;92.30;;;;;;4999457;28;19976;-48
2022/11/10 02:23:46;;;;;;;;;;;9.80;92.30;;;;;;5013019;28;19917;-47
2022/11/10 02:26:16;;;;;;;;;;;9.70;92.20;;;;;;5012440;28;19909;-47
2022/11/10 02:28:43;;;;;;;;;;;9.70;92.20;;;;;;4993485;28;19913;-49
2022/11/10 02:31:10;;;;;;;;;;;9.70;92.30;;;;;;4994378;28;19905;-49
2022/11/10 02:33:35;;;;;;;;;;;9.60;92.20;;;;;;4994221;28;19937;-47
2022/11/10 02:36:01;;;;;;;;;;;9.70;92.40;;;;;;4999042;28;19960;-47
2022/11/10 02:38:27;;;;;;;;;;;9.70;92.50;;;;;;4996489;28;19914;-47
2022/11/10 02:40:53;;;;;;;;;;;9.70;92.50;;;;;;5011877;28;19913;-47
2022/11/10 02:43:19;;;;;;;;;;;9.60;92.50;;;;;;5009584;28;19909;-47
2022/11/10 02:45:44;;;;;;;;;;;9.70;92.70;;;;;;4993452;28;20259;-47
2022/11/10 02:48:12;;;;;;;;;;;9.60;92.60;;;;;;5009286;28;19945;-47
2022/11/10 02:50:39;;;;;;;;;;;9.60;92.70;;;;;;4997721;28;19909;-47
2022/11/10 02:53:05;;;;;;;;;;;9.60;92.70;;;;;;5013388;28;19917;-47
2022/11/10 02:55:31;;;;;;;;;;;9.60;92.70;;;;;;4992215;28;19921;-50
2022/11/10 02:57:57;;;;;;;;;;;9.60;92.70;;;;;;4994040;28;19909;-47
2022/11/10 03:00:23;;;;;;;;;;;9.60;92.70;;;;;;4993986;28;20212;-47
2022/11/10 03:03:00;;;;;;;;;;;9.60;92.70;;;;;;4993947;28;19909;-48
2022/11/10 03:05:46;;;;;;;;;;;9.60;92.70;;;;;;4998480;28;19913;-47
2022/11/10 03:08:14;;;;;;;;;;;9.60;92.80;;;;;;5013538;28;20354;-47
2022/11/10 03:10:40;;;;;;;;;;;9.60;92.70;;;;;;5004973;28;19909;-48
2022/11/10 03:13:07;;;;;;;;;;;9.50;92.60;;;;;;4993767;28;19917;-47
2022/11/10 03:15:36;;;;;;;;;;;9.40;92.70;;;;;;4993595;28;19910;-47
2022/11/10 03:18:03;;;;;;;;;;;9.40;92.60;;;;;;4994852;28;19924;-48
2022/11/10 03:20:30;;;;;;;;;;;9.40;92.60;;;;;;5012132;28;19936;-47
2022/11/10 03:23:06;;;;;;;;;;;9.30;92.70;;;;;;4999835;28;20307;-47
2022/11/10 03:25:33;;;;;;;;;;;9.30;92.80;;;;;;5016024;28;19905;-47
2022/11/10 03:28:01;;;;;;;;;;;9.30;92.80;;;;;;5010417;28;20418;-49
2022/11/10 03:30:26;;;;;;;;;;;9.20;92.90;;;;;;4997564;28;19949;-47
2022/11/10 03:32:53;;;;;;;;;;;9.20;92.90;;;;;;4997406;28;20015;-47
2022/11/10 03:35:19;;;;;;;;;;;9.20;92.90;;;;;;5014736;28;19956;-48
2022/11/10 03:37:45;;;;;;;;;;;9.20;92.90;;;;;;5005000;28;19949;-47
2022/11/10 03:40:12;;;;;;;;;;;9.20;93.00;;;;;;4997563;28;19944;-47
2022/11/10 03:42:44;;;;;;;;;;;9.20;93.00;;;;;;4997342;28;19905;-48
2022/11/10 03:45:12;;;;;;;;;;;9.20;92.90;;;;;;4997357;28;19913;-49
2022/11/10 03:47:38;;;;;;;;;;;9.10;93.00;;;;;;4996002;28;19924;-49
2022/11/10 03:50:06;;;;;;;;;;;9.10;92.90;;;;;;4998096;28;19923;-48
2022/11/10 03:52:32;;;;;;;;;;;9.00;92.90;;;;;;5016792;28;19906;-48
2022/11/10 03:54:59;;;;;;;;;;;9.00;92.90;;;;;;5009914;28;19960;-47
2022/11/10 03:57:26;;;;;;;;;;;9.00;93.00;;;;;;5012198;28;19972;-47
2022/11/10 03:59:52;;;;;;;;;;;9.00;93.00;;;;;;4996878;28;19972;-49
2022/11/10 04:02:18;;;;;;;;;;;9.00;93.00;;;;;;4997024;28;19910;-48
2022/11/10 04:10:13;;;;;;;;;;;9.00;93.00;;;;;;5016250;28;20361;-47
2022/11/10 04:15:42;;;;;;;;;;;8.90;93.10;;;;;;4996548;28;19924;-48
2022/11/10 04:18:24;;;;;;;;;;;8.90;93.20;;;;;;4996205;28;19964;-48
2022/11/10 04:20:54;;;;;;;;;;;8.90;93.20;;;;;;5010661;28;19913;-52
2022/11/10 04:23:27;;;;;;;;;;;8.90;93.20;;;;;;4998652;28;19945;-48
2022/11/10 04:28:48;;;;;;;;;;;9.00;93.30;;;;;;4996444;28;19984;-48
2022/11/10 04:31:16;;;;;;;;;;;9.00;93.20;;;;;;4996471;28;19910;-47
2022/11/10 04:33:42;;;;;;;;;;;9.00;93.20;;;;;;4995295;28;20374;-49
2022/11/10 04:36:10;;;;;;;;;;;9.00;93.20;;;;;;5001151;28;19999;-48
2022/11/10 04:38:39;;;;;;;;;;;9.00;93.30;;;;;;4995200;28;20332;-48
2022/11/10 04:41:05;;;;;;;;;;;9.00;93.30;;;;;;4995301;28;20286;-48
2022/11/10 04:43:31;;;;;;;;;;;9.00;93.30;;;;;;4995538;28;20029;-48
2022/11/10 04:45:58;;;;;;;;;;;9.00;93.30;;;;;;4995022;28;19914;-48
2022/11/10 04:48:25;;;;;;;;;;;9.00;93.30;;;;;;4996195;28;19928;-48
2022/11/10 04:50:51;;;;;;;;;;;9.00;93.30;;;;;;5010344;28;19918;-47
2022/11/10 04:53:18;;;;;;;;;;;9.00;93.40;;;;;;4995205;28;19914;-49
2022/11/10 04:55:45;;;;;;;;;;;9.00;93.30;;;;;;4995753;28;19913;-48
2022/11/10 04:58:11;;;;;;;;;;;9.00;93.30;;;;;;4995749;28;20336;-47
2022/11/10 05:00:37;;;;;;;;;;;9.00;93.30;;;;;;4995391;28;19906;-48
2022/11/10 05:03:04;;;;;;;;;;;9.00;93.30;;;;;;4995682;28;19996;-48
2022/11/10 05:05:30;;;;;;;;;;;9.00;93.40;;;;;;5010235;28;20418;-48
2022/11/10 05:07:55;;;;;;;;;;;9.00;93.40;;;;;;5014355;28;19914;-48
2022/11/10 05:10:23;;;;;;;;;;;9.10;93.40;;;;;;5015288;28;20536;-47
2022/11/10 05:12:58;;;;;;;;;;;9.00;93.40;;;;;;4999671;28;20390;-47
2022/11/10 05:15:25;;;;;;;;;;;9.10;93.50;;;;;;4995228;28;19917;-47
2022/11/10 05:17:55;;;;;;;;;;;9.10;93.50;;;;;;4995164;28;19906;-50
2022/11/10 05:20:22;;;;;;;;;;;9.10;93.50;;;;;;5008870;28;20012;-48
2022/11/10 05:25:45;;;;;;;;;;;9.10;93.50;;;;;;4994599;28;19951;-49
2022/11/10 05:28:11;;;;;;;;;;;9.10;93.50;;;;;;4994462;28;19909;-47
2022/11/10 05:30:37;;;;;;;;;;;9.10;93.40;;;;;;4993285;28;19910;-50
2022/11/10 05:33:04;;;;;;;;;;;9.20;93.50;;;;;;4993678;28;19964;-47
2022/11/10 05:35:32;;;;;;;;;;;9.10;93.50;;;;;;5011090;28;20000;-49
2022/11/10 05:38:00;;;;;;;;;;;9.20;93.50;;;;;;4993235;28;20093;-49
2022/11/10 05:40:27;;;;;;;;;;;9.10;93.50;;;;;;4994641;28;19910;-49
2022/11/10 05:42:54;;;;;;;;;;;9.20;93.50;;;;;;4994916;28;19948;-47
2022/11/10 05:45:22;;;;;;;;;;;9.20;93.50;;;;;;4995094;28;20323;-48
2022/11/10 05:47:49;;;;;;;;;;;9.20;93.50;;;;;;4993717;28;19914;-48
2022/11/10 05:50:17;;;;;;;;;;;9.20;93.50;;;;;;5012118;28;19920;-48
2022/11/10 05:52:45;;;;;;;;;;;9.20;93.50;;;;;;5013540;28;19923;-48
2022/11/10 05:55:12;;;;;;;;;;;9.20;93.60;;;;;;4995040;28;19936;-47
2022/11/10 05:57:37;;;;;;;;;;;9.30;93.60;;;;;;4993690;28;19917;-51
2022/11/10 06:00:04;;;;;;;;;;;9.30;93.50;;;;;;5009199;28;19914;-47
2022/11/10 06:02:29;;;;;;;;;;;9.30;93.50;;;;;;4993748;28;19963;-49
2022/11/10 06:04:55;;;;;;;;;;;9.30;93.50;;;;;;5007236;28;20350;-48
2022/11/10 06:07:20;;;;;;;;;;;9.30;93.60;;;;;;4994792;28;19914;-47
2022/11/10 06:09:47;;;;;;;;;;;9.30;93.60;;;;;;4993839;28;19972;-47
2022/11/10 06:12:13;;;;;;;;;;;9.40;93.60;;;;;;4994615;28;19918;-48
2022/11/10 06:14:40;;;;;;;;;;;9.40;93.60;;;;;;4993284;28;21854;-47
2022/11/10 06:17:05;;;;;;;;;;;9.40;93.60;;;;;;4994544;28;19917;-47
2022/11/10 06:19:34;;;;;;;;;;;9.40;93.50;;;;;;5011647;28;19921;-47
2022/11/10 06:22:02;;;;;;;;;;;9.40;93.60;;;;;;5014366;28;19905;-50
2022/11/10 06:24:29;;;;;;;;;;;9.40;93.50;;;;;;5012977;28;19921;-48
2022/11/10 06:26:55;;;;;;;;;;;9.40;93.40;;;;;;5008920;28;19910;-48
2022/11/10 06:29:20;;;;;;;;;;;9.40;93.50;;;;;;4994206;28;19910;-48
2022/11/10 06:31:47;;;;;;;;;;;9.40;93.40;;;;;;4994320;28;19906;-48
2022/11/10 06:34:14;;;;;;;;;;;9.40;93.40;;;;;;5006060;28;19996;-50
2022/11/10 06:36:41;;;;;;;;;;;9.40;93.50;;;;;;5013826;28;19967;-48
2022/11/10 06:39:06;;;;;;;;;;;9.40;93.50;;;;;;5010009;28;20338;-49
2022/11/10 06:41:32;;;;;;;;;;;9.40;93.40;;;;;;5009444;28;19909;-48
2022/11/10 06:43:58;;;;;;;;;;;9.40;93.40;;;;;;4993651;28;19920;-47
2022/11/10 06:46:28;;;;;;;;;;;9.40;93.40;;;;;;5009193;28;20387;-47
2022/11/10 06:48:54;;;;;;;;;;;9.40;93.40;;;;;;5011914;28;19917;-48
2022/11/10 06:51:21;;;;;;;;;;;9.40;93.40;;;;;;5007424;28;19913;-48
2022/11/10 06:53:46;;;;;;;;;;;9.40;93.40;;;;;;4996709;28;19913;-51
2022/11/10 06:56:13;;;;;;;;;;;9.40;93.40;;;;;;4996942;28;20319;-48
2022/11/10 06:58:40;;;;;;;;;;;9.40;93.40;;;;;;4997917;28;19925;-48
2022/11/10 07:01:06;;;;;;;;;;;9.40;93.40;;;;;;4997631;28;19914;-48
2022/11/10 07:03:34;;;;;;;;;;;9.40;93.50;;;;;;5008262;28;19910;-48
2022/11/10 07:06:00;;;;;;;;;;;9.40;93.50;;;;;;5014874;28;19952;-47
2022/11/10 07:08:26;;;;;;;;;;;9.40;93.40;;;;;;5004158;28;20328;-48
2022/11/10 07:10:54;;;;;;;;;;;9.40;93.50;;;;;;5013596;28;19909;-49
2022/11/10 07:13:20;;;;;;;;;;;9.40;93.50;;;;;;5012145;28;19933;-49
2022/11/10 07:15:47;;;;;;;;;;;9.40;93.50;;;;;;4997395;28;19968;-48
2022/11/10 07:18:13;;;;;;;;;;;9.40;93.50;;;;;;5001987;28;19917;-48
2022/11/10 07:20:40;;;;;;;;;;;9.50;93.50;;;;;;5002693;28;19976;-48
2022/11/10 07:23:07;;;;;;;;;;;9.50;93.60;;;;;;4996503;28;19906;-47
2022/11/10 07:25:36;;;;;;;;;;;9.50;93.60;;;;;;4995189;28;20335;-48
2022/11/10 07:28:04;;;;;;;;;;;9.50;93.60;;;;;;4996260;28;19910;-48
2022/11/10 07:30:31;;;;;;;;;;;9.60;93.60;;;;;;4995119;28;20312;-49
2022/11/10 07:33:03;;;;;;;;;;;9.60;93.60;;;;;;5001607;28;19913;-48
2022/11/10 07:35:29;;;;;;;;;;;9.60;93.60;;;;;;5011390;28;19929;-48
2022/11/10 07:37:59;;;;;;;;;;;9.60;93.50;;;;;;4996142;28;19964;-47
2022/11/10 07:40:25;;;;;;;;;;;9.50;93.50;;;;;;4995897;28;19917;-47
2022/11/10 07:42:52;;;;;;;;;;;9.60;93.50;;;;;;4996191;28;19906;-48
2022/11/10 07:45:19;;;;;;;;;;;9.60;93.40;;;;;;4995767;28;19976;-48
2022/11/10 07:47:45;;;;;;;;;;;9.60;93.40;;;;;;4998302;28;20295;-48
2022/11/10 07:50:12;;;;;;;;;;;9.70;93.40;;;;;;5013873;28;19917;-49
2022/11/10 07:52:37;;;;;;;;;;;9.70;93.40;;;;;;5011817;28;19917;-48
2022/11/10 07:55:04;;;;;;;;;;;9.70;93.40;;;;;;5013948;28;20388;-47
2022/11/10 07:57:29;;;;;;;;;;;9.70;93.40;;;;;;5012444;28;19913;-47
2022/11/10 07:59:55;;;;;;;;;;;9.80;93.40;;;;;;4995264;28;20410;-47
2022/11/10 08:02:22;;;;;;;;;;;9.90;93.40;;;;;;5012627;28;19913;-47
2022/11/10 08:04:49;;;;;;;;;;;9.90;93.30;;;;;;5011336;28;19909;-48
2022/11/10 08:07:15;;;;;;;;;;;10.00;93.30;;;;;;4997500;28;19909;-47
2022/11/10 08:09:42;;;;;;;;;;;10.00;93.20;;;;;;5014203;28;19917;-47
2022/11/10 08:12:09;;;;;;;;;;;10.10;93.10;;;;;;5008415;28;19917;-48
2022/11/10 08:14:38;;;;;;;;;;;10.10;93.00;;;;;;4995660;28;19909;-47
2022/11/10 08:17:06;;;;;;;;;;;10.20;93.00;;;;;;4995639;28;19929;-47
2022/11/10 08:19:31;;;;;;;;;;;10.20;92.90;;;;;;4970814;28;1181917;-49
2022/11/10 08:21:57;;;;;;;;;;;10.30;92.90;;;;;;5015574;28;19963;-47
2022/11/10 08:24:24;;;;;;;;;;;10.40;92.90;;;;;;5012951;28;19920;-47
2022/11/10 08:26:50;;;;;;;;;;;10.50;92.90;;;;;;5012092;28;19937;-48
2022/11/10 08:29:17;;;;;;;;;;;10.70;92.90;;;;;;4996252;28;20334;-47
2022/11/10 08:31:44;;;;;;;;;;;10.80;92.80;;;;;;4996320;28;19967;-47
2022/11/10 08:34:11;;;;;;;;;;;10.90;92.70;;;;;;5006298;28;19936;-47
2022/11/10 08:36:39;;;;;;;;;;;11.10;92.30;;;;;;5016090;28;19915;-47
2022/11/10 08:39:05;;;;;;;;;;;11.20;92.10;;;;;;5016200;28;20309;-46
2022/11/10 08:41:33;;;;;;;;;;;11.30;92.00;;;;;;4999547;28;20355;-46
2022/11/10 08:44:00;;;;;;;;;;;11.40;91.60;;;;;;4996144;28;20012;-46
2022/11/10 08:46:26;;;;;;;;;;;11.50;91.20;;;;;;4995821;28;19945;-46
2022/11/10 08:48:52;;;;;;;;;;;11.60;91.00;;;;;;5002688;28;19960;-46
2022/11/10 08:51:20;;;;;;;;;;;11.50;90.80;;;;;;4996058;28;20312;-46
2022/11/10 08:53:47;;;;;;;;;;;11.50;90.80;;;;;;4995961;28;20307;-46
2022/11/10 08:56:14;;;;;;;;;;;11.50;90.60;;;;;;4995566;28;19921;-45
2022/11/10 08:58:41;;;;;;;;;;;11.50;90.50;;;;;;5011271;28;19945;-46
2022/11/10 09:01:08;;;;;;;;;;;11.50;90.50;;;;;;4995884;28;19917;-45
2022/11/10 09:03:35;;;;;;;;;;;11.50;90.50;;;;;;5006239;28;19913;-46
2022/11/10 09:06:01;;;;;;;;;;;11.60;90.80;;;;;;5015340;28;19912;-45
2022/11/10 09:08:26;;;;;;;;;;;11.70;90.90;;;;;;5015160;28;19909;-46
2022/11/10 09:10:52;;;;;;;;;;;11.90;90.90;;;;;;5014242;28;19992;-45
2022/11/10 09:13:21;;;;;;;;;;;12.20;90.60;;;;;;5015203;28;19913;-46
2022/11/10 09:15:48;;;;;;;;;;;12.30;89.90;;;;;;5003402;28;19921;-45
2022/11/10 09:18:14;;;;;;;;;;;12.40;89.30;;;;;;5004556;28;20075;-45
2022/11/10 09:20:41;;;;;;;;;;;12.40;89.40;;;;;;5015534;28;19992;-49
2022/11/10 09:23:18;;;;;;;;;;;12.40;89.20;;;;;;5015255;28;19952;-45
2022/11/10 09:25:48;;;;;;;;;;;12.40;88.90;;;;;;5009434;28;19914;-45
2022/11/10 09:28:15;;;;;;;;;;;12.40;89.10;;;;;;4994437;28;20012;-45
2022/11/10 09:30:44;;;;;;;;;;;12.30;89.10;;;;;;5009359;28;19968;-45
2022/11/10 09:33:11;;;;;;;;;;;12.30;88.90;;;;;;5012625;28;19914;-46
2022/11/10 09:35:37;;;;;;;;;;;12.30;89.20;;;;;;5013826;28;19954;-45
2022/11/10 09:38:04;;;;;;;;;;;12.20;89.10;;;;;;5000236;28;19960;-45
2022/11/10 09:40:42;;;;;;;;;;;12.20;89.10;;;;;;4994818;28;20254;-46
2022/11/10 09:43:11;;;;;;;;;;;12.30;89.10;;;;;;4994980;28;19905;-45
2022/11/10 09:45:41;;;;;;;;;;;12.30;89.00;;;;;;4993565;28;19914;-45
2022/11/10 09:48:28;;;;;;;;;;;12.30;89.10;;;;;;5012645;28;19910;-45
2022/11/10 09:51:06;;;;;;;;;;;12.20;89.10;;;;;;4996679;28;19939;-46
2022/11/10 09:53:51;;;;;;;;;;;12.20;89.10;;;;;;5012699;28;19921;-45
2022/11/10 09:56:26;;;;;;;;;;;12.20;89.10;;;;;;5014627;28;19913;-45
2022/11/10 09:58:53;;;;;;;;;;;12.10;89.10;;;;;;5008947;28;20271;-47
2022/11/10 10:01:35;;;;;;;;;;;12.10;89.10;;;;;;4994677;28;19909;-47
2022/11/10 10:04:30;;;;;;;;;;;12.00;89.20;;;;;;5011343;28;20409;-47
2022/11/10 10:07:14;;;;;;;;;;;12.10;89.40;;;;;;4992051;28;20472;-47
2022/11/10 10:09:58;;;;;;;;;;;12.30;89.60;;;;;;5014147;28;20014;-47
2022/11/10 10:12:40;;;;;;;;;;;12.40;89.10;;;;;;5009061;28;19920;-47
2022/11/10 10:15:18;;;;;;;;;;;12.60;88.90;;;;;;4994192;28;19909;-49
2022/11/10 10:17:46;;;;;;;;;;;12.70;88.80;;;;;;5003717;28;19913;-46
2022/11/10 10:20:27;;;;;;;;;;;12.70;88.50;;;;;;5011767;28;19909;-47
2022/11/10 10:23:07;;;;;;;;;;;12.80;88.20;;;;;;4994685;28;19909;-46
2022/11/10 10:25:33;;;;;;;;;;;12.80;88.20;;;;;;4994341;28;19999;-46
2022/11/10 10:28:05;;;;;;;;;;;12.90;88.20;;;;;;4994394;28;19953;-46
2022/11/10 10:30:32;;;;;;;;;;;12.80;88.00;;;;;;5008939;28;19906;-46
2022/11/10 10:33:19;;;;;;;;;;;12.70;87.90;;;;;;5012017;28;19909;-46
2022/11/10 10:35:47;;;;;;;;;;;12.80;88.10;;;;;;5012417;28;19913;-46
2022/11/10 10:38:35;;;;;;;;;;;12.80;88.00;;;;;;4999361;28;20262;-46
2022/11/10 10:41:06;;;;;;;;;;;12.70;87.80;;;;;;5010113;28;19944;-47
2022/11/10 10:43:33;;;;;;;;;;;12.80;87.80;;;;;;5008240;28;20000;-46
2022/11/10 10:46:05;;;;;;;;;;;12.90;87.80;;;;;;4993635;28;20352;-46
2022/11/10 10:48:32;;;;;;;;;;;12.90;87.70;;;;;;5008767;28;19920;-47
2022/11/10 10:50:57;;;;;;;;;;;13.00;87.90;;;;;;5011731;28;19914;-46
2022/11/10 10:53:24;;;;;;;;;;;13.10;87.40;;;;;;5013924;28;19921;-46
2022/11/10 10:56:00;;;;;;;;;;;13.20;87.40;;;;;;5011300;28;19917;-46
2022/11/10 10:58:29;;;;;;;;;;;13.30;86.70;;;;;;4994233;28;19906;-46
2022/11/10 11:00:56;;;;;;;;;;;13.30;86.50;;;;;;4994065;28;19921;-46
2022/11/10 11:03:27;;;;;;;;;;;13.40;86.80;;;;;;5011063;28;20281;-50
2022/11/10 11:06:01;;;;;;;;;;;13.30;86.80;;;;;;5005704;28;19942;-46
2022/11/10 11:08:26;;;;;;;;;;;13.20;87.10;;;;;;4993770;28;20315;-46
2022/11/10 11:10:53;;;;;;;;;;;13.20;87.10;;;;;;4993095;28;19949;-46
2022/11/10 11:13:27;;;;;;;;;;;13.20;86.90;;;;;;4993882;28;19905;-48
2022/11/10 11:15:57;;;;;;;;;;;13.20;86.70;;;;;;4993666;28;20008;-47
2022/11/10 11:18:30;;;;;;;;;;;13.30;87.10;;;;;;5007712;28;19921;-46
2022/11/10 11:21:01;;;;;;;;;;;13.20;87.00;;;;;;5009489;28;19979;-46
2022/11/10 11:23:47;;;;;;;;;;;13.20;87.40;;;;;;4993814;28;19906;-47
2022/11/10 11:26:31;;;;;;;;;;;13.30;87.40;;;;;;4993760;28;19909;-46
2022/11/10 11:28:59;;;;;;;;;;;13.20;87.00;;;;;;4993710;28;19910;-46
2022/11/10 11:31:44;;;;;;;;;;;13.40;87.00;;;;;;5003571;28;19909;-47
2022/11/10 11:34:36;;;;;;;;;;;13.30;86.40;;;;;;4999883;28;20009;-46
2022/11/10 11:37:13;;;;;;;;;;;13.30;86.70;;;;;;4985528;28;19972;-46
2022/11/10 11:39:44;;;;;;;;;;;13.40;86.70;;;;;;4995914;28;19996;-46
2022/11/10 11:42:28;;;;;;;;;;;13.40;86.30;;;;;;5012663;28;20576;-47
2022/11/10 11:45:12;;;;;;;;;;;13.50;86.20;;;;;;4997015;28;19921;-46
2022/11/10 11:47:56;;;;;;;;;;;13.50;86.00;;;;;;5016376;28;20620;-47
2022/11/10 11:50:40;;;;;;;;;;;13.50;86.20;;;;;;5001261;28;19917;-46
2022/11/10 11:53:24;;;;;;;;;;;13.50;86.40;;;;;;4997500;28;19909;-47
2022/11/10 11:56:08;;;;;;;;;;;13.50;86.00;;;;;;4997142;28;19971;-47
2022/11/10 11:58:52;;;;;;;;;;;13.50;85.70;;;;;;4997014;28;19910;-46
2022/11/10 12:01:30;;;;;;;;;;;13.40;85.90;;;;;;5010131;28;19913;-47
2022/11/10 12:04:01;;;;;;;;;;;13.50;86.10;;;;;;5016455;28;19909;-46
2022/11/10 12:06:40;;;;;;;;;;;13.50;85.70;;;;;;4996962;28;19910;-46
2022/11/10 12:09:26;;;;;;;;;;;13.60;86.00;;;;;;5006455;28;19917;-47
2022/11/10 12:12:24;;;;;;;;;;;13.60;86.20;;;;;;5015921;28;20040;-46
2022/11/10 12:15:09;;;;;;;;;;;13.60;86.00;;;;;;4952077;28;19944;-47
2022/11/10 12:17:48;;;;;;;;;;;13.60;85.90;;;;;;5013847;28;20596;-47
2022/11/10 12:20:32;;;;;;;;;;;13.70;85.90;;;;;;5016092;28;20386;-49
2022/11/10 12:23:19;;;;;;;;;;;13.70;86.00;;;;;;5016235;28;20051;-46
2022/11/10 12:25:53;;;;;;;;;;;13.70;86.10;;;;;;5015378;28;19913;-46
2022/11/10 12:28:32;;;;;;;;;;;13.70;86.00;;;;;;5005138;28;20015;-47
2022/11/10 12:31:10;;;;;;;;;;;13.70;85.80;;;;;;5006175;28;19999;-47
2022/11/10 12:33:35;;;;;;;;;;;13.70;86.00;;;;;;5010679;28;19941;-47
2022/11/10 12:36:04;;;;;;;;;;;13.70;85.80;;;;;;4995926;28;19917;-46
2022/11/10 12:38:43;;;;;;;;;;;13.70;85.70;;;;;;4995150;28;19910;-48
2022/11/10 12:41:18;;;;;;;;;;;13.80;85.50;;;;;;4996345;28;19960;-47
2022/11/10 12:43:46;;;;;;;;;;;13.80;85.60;;;;;;4996393;28;19913;-46
2022/11/10 12:46:12;;;;;;;;;;;13.90;85.90;;;;;;5002851;28;19996;-47
2022/11/10 12:48:42;;;;;;;;;;;13.90;85.10;;;;;;4996196;28;20009;-46
2022/11/10 12:51:28;;;;;;;;;;;13.90;85.00;;;;;;4993782;28;19996;-46
2022/11/10 12:53:54;;;;;;;;;;;13.90;84.70;;;;;;4996016;28;20028;-50
2022/11/10 12:56:28;;;;;;;;;;;13.90;84.90;;;;;;4995838;28;20000;-48
2022/11/10 12:59:14;;;;;;;;;;;13.90;85.10;;;;;;4995864;28;19945;-46
2022/11/10 13:01:44;;;;;;;;;;;13.90;85.00;;;;;;5011142;28;19922;-47
2022/11/10 13:04:14;;;;;;;;;;;13.90;85.10;;;;;;5010953;28;19906;-47
2022/11/10 13:07:07;;;;;;;;;;;13.90;84.90;;;;;;4995775;28;19905;-46
2022/11/10 13:09:35;;;;;;;;;;;13.90;85.00;;;;;;4993223;28;19912;-46
2022/11/10 13:12:09;;;;;;;;;;;13.90;85.20;;;;;;4997463;28;19913;-46
2022/11/10 13:14:37;;;;;;;;;;;13.90;85.10;;;;;;5013060;28;19910;-47
2022/11/10 13:17:07;;;;;;;;;;;13.90;85.30;;;;;;5015006;28;19927;-46
2022/11/10 13:19:37;;;;;;;;;;;13.90;85.40;;;;;;5003649;28;20325;-46
2022/11/10 13:22:05;;;;;;;;;;;13.90;85.20;;;;;;4994971;28;19965;-46
2022/11/10 13:24:49;;;;;;;;;;;14.00;85.30;;;;;;4993722;28;19931;-46
2022/11/10 13:27:33;;;;;;;;;;;13.90;85.10;;;;;;4994925;28;20001;-46
2022/11/10 13:29:59;;;;;;;;;;;13.90;85.20;;;;;;5005423;28;19933;-48
2022/11/10 13:32:33;;;;;;;;;;;13.90;85.20;;;;;;5014150;28;20006;-47
2022/11/10 13:35:19;;;;;;;;;;;13.90;85.40;;;;;;5013776;28;19912;-46
2022/11/10 13:37:49;;;;;;;;;;;14.00;85.10;;;;;;4994895;28;19918;-49
2022/11/10 13:40:29;;;;;;;;;;;14.00;84.90;;;;;;4992759;28;20338;-46
2022/11/10 13:42:55;;;;;;;;;;;14.00;84.90;;;;;;4994376;28;20255;-48
2022/11/10 13:45:27;;;;;;;;;;;14.10;84.90;;;;;;5008886;28;19920;-46
2022/11/10 13:47:57;;;;;;;;;;;14.10;84.70;;;;;;5013667;28;20094;-47
2022/11/10 13:50:34;;;;;;;;;;;14.10;84.80;;;;;;5005852;28;20374;-47
2022/11/10 13:53:24;;;;;;;;;;;14.10;85.00;;;;;;5014137;28;19913;-47
2022/11/10 13:55:52;;;;;;;;;;;14.10;84.80;;;;;;4994325;28;19917;-46
2022/11/10 13:58:30;;;;;;;;;;;14.00;84.80;;;;;;4994279;28;19905;-48
2022/11/10 14:01:25;;;;;;;;;;;14.00;85.00;;;;;;5009803;28;19917;-47
2022/11/10 14:03:54;;;;;;;;;;;13.90;85.20;;;;;;4989754;28;19906;-47
2022/11/10 14:06:21;;;;;;;;;;;13.90;85.30;;;;;;4994074;28;19925;-49
2022/11/10 14:09:06;;;;;;;;;;;13.90;85.20;;;;;;4992958;28;20301;-47
2022/11/10 14:11:39;;;;;;;;;;;13.90;85.50;;;;;;4993338;28;20331;-47
2022/11/10 14:14:23;;;;;;;;;;;13.80;85.70;;;;;;4982020;28;19922;-47
2022/11/10 14:16:51;;;;;;;;;;;13.80;86.00;;;;;;5008276;28;20177;-49
2022/11/10 14:19:36;;;;;;;;;;;13.80;86.10;;;;;;4993507;28;20374;-47
2022/11/10 14:22:24;;;;;;;;;;;13.70;86.00;;;;;;4993186;28;19905;-46
2022/11/10 14:24:53;;;;;;;;;;;13.70;86.20;;;;;;4990613;28;20373;-47
2022/11/10 14:27:25;;;;;;;;;;;13.70;86.30;;;;;;4994517;28;19906;-47
2022/11/10 14:30:17;;;;;;;;;;;13.70;86.40;;;;;;5008174;28;20346;-47
2022/11/10 14:32:44;;;;;;;;;;;13.70;86.30;;;;;;5004947;28;19996;-47
2022/11/10 14:35:21;;;;;;;;;;;13.70;86.40;;;;;;4994299;28;19910;-47
2022/11/10 14:37:48;;;;;;;;;;;13.70;86.40;;;;;;5012825;28;19921;-48
2022/11/10 14:40:17;;;;;;;;;;;13.70;86.50;;;;;;5013121;28;19956;-46
2022/11/10 14:42:45;;;;;;;;;;;13.70;86.60;;;;;;5013852;28;19916;-47
2022/11/10 14:45:18;;;;;;;;;;;13.60;86.50;;;;;;5001384;28;19910;-47
2022/11/10 14:47:55;;;;;;;;;;;13.60;86.60;;;;;;4994054;28;19916;-50
2022/11/10 14:50:27;;;;;;;;;;;13.60;86.80;;;;;;4994367;28;19967;-47
2022/11/10 14:53:00;;;;;;;;;;;13.60;86.90;;;;;;4994000;28;19910;-46
2022/11/10 14:55:29;;;;;;;;;;;13.50;87.10;;;;;;4994151;28;19909;-46
2022/11/10 14:58:16;;;;;;;;;;;13.50;87.10;;;;;;4993911;28;19910;-47